createdAt,value
2022-12-01T00:07:15.749Z,6
2022-12-01T00:17:16.701Z,6
2022-12-01T00:27:16.860Z,6
2022-12-01T00:37:17.297Z,6
2022-12-01T00:47:17.980Z,6
2022-12-01T00:57:18.588Z,5.9
2022-12-01T01:07:19.447Z,5.9
2022-12-01T01:17:20.388Z,6
2022-12-01T01:27:21.337Z,6
2022-12-01T01:37:21.611Z,6
2022-12-01T01:47:21.776Z,6
2022-12-01T01:57:22.818Z,6
2022-12-01T02:07:23.275Z,6
2022-12-01T02:17:24.269Z,6
2022-12-01T02:27:24.965Z,6
2022-12-01T02:37:25.465Z,6
2022-12-01T02:47:25.754Z,6
2022-12-01T02:57:26.597Z,5.9
2022-12-01T03:07:27.332Z,6
2022-12-01T03:17:27.677Z,5.9
2022-12-01T03:27:28.076Z,5.9
2022-12-01T03:37:28.473Z,5.9
2022-12-01T03:57:29.083Z,5.9
2022-12-01T04:07:30.069Z,5.9
2022-12-01T04:17:30.348Z,5.9
2022-12-01T04:27:31.372Z,6
2022-12-01T04:37:31.995Z,5.9
2022-12-01T04:47:32.545Z,5.9
2022-12-01T04:57:33.426Z,5.9
2022-12-01T05:07:34.146Z,5.9
2022-12-01T05:17:37.043Z,5.9
2022-12-01T05:27:35.133Z,5.9
2022-12-01T05:37:36.020Z,5.8
2022-12-01T05:47:36.994Z,5.8
2022-12-01T05:57:37.318Z,5.8
2022-12-01T06:07:38.092Z,5.8
2022-12-01T06:17:40.324Z,5.8
2022-12-01T06:27:39.192Z,5.8
2022-12-01T06:37:39.388Z,5.8
2022-12-01T06:47:40.108Z,5.7
2022-12-01T06:57:40.367Z,5.7
2022-12-01T07:07:40.615Z,5.7
2022-12-01T07:17:41.159Z,5.7
2022-12-01T07:27:42.134Z,5.7
2022-12-01T07:37:42.821Z,5.7
2022-12-01T07:47:43.626Z,5.7
2022-12-01T07:57:44.715Z,5.6
2022-12-01T08:07:45.729Z,5.6
2022-12-01T08:17:45.940Z,5.6
2022-12-01T08:27:46.250Z,5.6
2022-12-01T08:37:47.323Z,5.6
2022-12-01T08:47:47.969Z,5.6
2022-12-01T08:57:48.169Z,5.7
2022-12-01T09:07:48.281Z,5.7
2022-12-01T09:17:48.325Z,5.7
2022-12-01T09:27:49.060Z,5.7
2022-12-01T09:37:49.432Z,5.7
2022-12-01T09:38:11.385Z,5.7
2022-12-01T09:47:55.650Z,5.8
2022-12-01T09:57:56.366Z,5.9
2022-12-01T10:07:56.825Z,5.9
2022-12-01T10:17:57.639Z,5.9
2022-12-01T10:27:57.920Z,6
2022-12-01T10:37:58.973Z,5.9
2022-12-01T10:47:59.397Z,5.9
2022-12-01T10:58:00.833Z,6
2022-12-01T11:08:00.779Z,6.1
2022-12-01T11:18:01.254Z,6.1
2022-12-01T11:28:02.263Z,6.1
2022-12-01T11:38:29.524Z,6.2
2022-12-01T11:48:03.297Z,6.3
2022-12-01T11:58:03.747Z,6.3
2022-12-01T12:08:04.543Z,6.4
2022-12-01T12:18:04.760Z,6.4
2022-12-01T12:28:05.120Z,6.4
2022-12-01T12:38:05.422Z,6.4
2022-12-01T12:48:06.127Z,6.5
2022-12-01T12:58:10.860Z,6.4
2022-12-01T13:08:06.473Z,6.4
2022-12-01T13:18:07.394Z,6.3
2022-12-01T13:28:07.571Z,6.3
2022-12-01T13:38:07.888Z,6.3
2022-12-01T13:48:08.303Z,6.3
2022-12-01T13:58:09.184Z,6.3
2022-12-01T14:08:10.005Z,6.3
2022-12-01T14:18:10.922Z,6.2
2022-12-01T14:28:11.706Z,6.2
2022-12-01T14:38:12.178Z,6.1
2022-12-01T14:48:13.036Z,6
2022-12-01T15:08:40.056Z,5.8
2022-12-01T15:18:15.398Z,5.8
2022-12-01T15:28:15.909Z,5.7
2022-12-01T15:38:16.393Z,5.7
2022-12-01T15:48:16.600Z,5.7
2022-12-01T15:58:17.318Z,5.6
2022-12-01T16:08:18.311Z,5.6
2022-12-01T16:18:19.274Z,5.5
2022-12-01T16:28:19.506Z,5.4
2022-12-01T16:38:19.595Z,5.3
2022-12-01T16:48:19.964Z,5.2
2022-12-01T16:58:20.218Z,5.2
2022-12-01T17:08:21.269Z,5.1
2022-12-01T17:18:21.392Z,5.1
2022-12-01T17:28:22.047Z,5
2022-12-01T17:38:22.594Z,5
2022-12-01T17:48:22.926Z,4.9
2022-12-01T17:58:23.768Z,4.9
2022-12-01T18:08:24.778Z,4.9
2022-12-01T18:18:25.788Z,4.9
2022-12-01T18:28:26.238Z,4.9
2022-12-01T18:38:26.373Z,4.8
2022-12-01T18:48:27.299Z,4.8
2022-12-01T18:58:27.606Z,4.8
2022-12-01T19:08:28.633Z,4.8
2022-12-01T19:18:28.956Z,4.7
2022-12-01T19:28:29.317Z,4.6
2022-12-01T19:38:29.749Z,4.5
2022-12-01T19:48:29.857Z,4.5
2022-12-01T19:58:30.010Z,4.5
2022-12-01T20:08:32.863Z,4.5
2022-12-01T20:38:31.756Z,4.5
2022-12-01T20:48:31.965Z,4.5
2022-12-01T20:58:37.149Z,4.6
2022-12-01T21:08:33.224Z,4.5
2022-12-01T21:18:33.336Z,4.4
2022-12-01T21:28:33.557Z,4.4
2022-12-01T21:38:34.356Z,4.4
2022-12-01T21:48:34.514Z,4.4
2022-12-01T21:58:34.786Z,4.2
2022-12-01T22:08:35.585Z,4.2
2022-12-01T22:18:36.423Z,4.1
2022-12-01T22:38:37.953Z,4
2022-12-01T22:48:38.956Z,4
2022-12-01T22:58:39.894Z,4
2022-12-01T23:08:40.044Z,3.9
2022-12-01T23:18:41.032Z,3.9
2022-12-01T23:28:41.644Z,3.8
2022-12-01T23:38:41.806Z,3.8
2022-12-01T23:58:42.994Z,3.8
